Time;durP1;ratioP1;P1;durP2;ratioP2;P2;SDS_P1;SDS_P2;PMS_P1;PMS_P2;Temp;Humidity;BMP_temperature;BMP_pressure;BME280_temperature;BME280_humidity;BME280_pressure;Samples;Min_cycle;Max_cycle;Signal;HPM_P1;HPM_P2
2021/04/30 00:01:15;;;;;;;4.60;3.27;;;11.30;99.90;;;;;;5091657;28;20671;-72
2021/04/30 00:03:41;;;;;;;3.27;2.83;;;11.30;99.90;;;;;;5091258;28;20205;-71
2021/04/30 00:06:08;;;;;;;4.30;3.43;;;11.20;99.90;;;;;;5091826;28;20206;-70
2021/04/30 00:08:34;;;;;;;7.90;3.20;;;11.30;99.90;;;;;;5091477;28;20262;-73
2021/04/30 00:11:02;;;;;;;4.83;3.53;;;11.40;99.90;;;;;;5091078;28;20227;-71
2021/04/30 00:13:28;;;;;;;6.73;4.50;;;11.30;99.90;;;;;;5091477;28;20245;-73
2021/04/30 00:15:55;;;;;;;3.10;2.90;;;11.30;99.90;;;;;;5091036;28;20209;-70
2021/04/30 00:18:22;;;;;;;5.73;3.27;;;11.20;99.90;;;;;;5091409;28;20205;-73
2021/04/30 00:20:52;;;;;;;3.93;3.57;;;11.20;99.90;;;;;;5089789;28;20205;-73
2021/04/30 00:23:18;;;;;;;4.13;3.60;;;11.20;99.90;;;;;;5091008;28;20213;-73
2021/04/30 00:25:46;;;;;;;4.43;3.20;;;11.20;99.90;;;;;;5090857;28;20259;-72
2021/04/30 00:28:13;;;;;;;3.50;3.17;;;11.20;99.90;;;;;;5091497;28;20202;-72
2021/04/30 00:30:42;;;;;;;3.30;3.00;;;11.20;99.90;;;;;;5091039;28;20209;-71
2021/04/30 00:33:09;;;;;;;6.33;3.77;;;11.20;99.90;;;;;;5091064;28;20228;-71
2021/04/30 00:35:36;;;;;;;4.00;3.60;;;11.20;99.90;;;;;;5091035;28;20210;-71
2021/04/30 00:38:02;;;;;;;3.17;2.87;;;11.10;99.90;;;;;;5090336;28;20220;-71
2021/04/30 00:40:29;;;;;;;4.00;3.60;;;11.00;99.90;;;;;;5090835;28;20679;-72
2021/04/30 00:42:56;;;;;;;3.37;3.07;;;11.00;99.90;;;;;;5090818;28;20212;-74
2021/04/30 00:45:24;;;;;;;3.43;3.13;;;11.00;99.90;;;;;;5090861;28;20205;-72
2021/04/30 00:47:51;;;;;;;7.43;3.33;;;11.00;99.90;;;;;;5090407;28;20209;-72
2021/04/30 00:50:21;;;;;;;3.83;3.03;;;11.00;99.90;;;;;;5090795;28;20235;-72
2021/04/30 00:52:47;;;;;;;3.90;3.20;;;11.00;99.90;;;;;;5090133;28;20275;-72
2021/04/30 00:55:16;;;;;;;5.10;3.53;;;11.00;99.90;;;;;;5090796;28;20205;-72
2021/04/30 00:57:47;;;;;;;4.40;3.07;;;11.00;99.90;;;;;;5090118;28;20579;-72
2021/04/30 01:00:15;;;;;;;3.50;2.90;;;11.00;99.90;;;;;;5090412;28;20627;-72
2021/04/30 01:02:43;;;;;;;4.93;2.80;;;11.00;99.90;;;;;;5090145;28;20596;-72
2021/04/30 01:05:11;;;;;;;4.10;3.17;;;11.00;99.90;;;;;;5090875;28;20661;-72
2021/04/30 01:07:37;;;;;;;5.93;3.33;;;10.90;99.90;;;;;;5090558;28;20212;-72
2021/04/30 01:10:05;;;;;;;3.03;2.73;;;10.90;99.90;;;;;;5090552;28;20209;-72
2021/04/30 01:12:32;;;;;;;6.23;3.40;;;10.90;99.90;;;;;;5081949;28;20205;-72
2021/04/30 01:15:00;;;;;;;3.33;3.03;;;10.80;99.90;;;;;;5089901;28;20677;-71
2021/04/30 01:17:27;;;;;;;3.47;3.17;;;10.90;99.90;;;;;;5090183;28;20296;-72
2021/04/30 01:19:55;;;;;;;3.87;3.00;;;10.90;99.90;;;;;;5090007;28;20205;-72
2021/04/30 01:22:33;;;;;;;7.20;3.57;;;10.90;99.90;;;;;;5090008;28;20209;-71
2021/04/30 01:25:00;;;;;;;2.90;2.70;;;10.80;99.90;;;;;;5090309;28;20256;-70
2021/04/30 01:27:27;;;;;;;3.80;2.97;;;10.80;99.90;;;;;;5090137;28;20205;-71
2021/04/30 01:29:53;;;;;;;2.63;2.43;;;10.70;99.90;;;;;;5089899;28;20263;-72
2021/04/30 01:32:20;;;;;;;3.53;3.00;;;10.70;99.90;;;;;;5091124;28;20597;-72
2021/04/30 01:34:46;;;;;;;3.03;2.77;;;10.70;99.90;;;;;;5093918;28;20212;-71
2021/04/30 01:37:13;;;;;;;2.70;2.50;;;10.70;99.90;;;;;;5094345;28;20583;-71
2021/04/30 01:39:40;;;;;;;2.90;2.67;;;10.80;99.90;;;;;;5094170;28;20202;-71
2021/04/30 01:42:07;;;;;;;3.10;2.80;;;10.70;99.90;;;;;;5094546;28;20205;-71
2021/04/30 01:44:34;;;;;;;2.87;2.50;;;10.70;99.90;;;;;;5094177;28;20665;-71
2021/04/30 01:47:01;;;;;;;2.60;2.40;;;10.80;99.90;;;;;;5093795;28;20703;-71
2021/04/30 01:49:28;;;;;;;3.30;2.73;;;10.70;99.90;;;;;;5093779;28;20696;-71
2021/04/30 01:51:55;;;;;;;4.57;2.53;;;10.60;99.90;;;;;;5094002;28;20198;-71
2021/04/30 01:54:22;;;;;;;2.87;2.60;;;10.50;99.90;;;;;;5094178;28;20237;-71
2021/04/30 01:56:50;;;;;;;3.70;1.93;;;10.60;99.90;;;;;;5093483;28;20258;-70
2021/04/30 01:59:17;;;;;;;3.43;2.40;;;10.60;99.90;;;;;;5093975;28;20212;-72
2021/04/30 02:01:44;;;;;;;3.17;2.17;;;10.50;99.90;;;;;;5093299;28;20693;-71
2021/04/30 02:04:11;;;;;;;2.63;2.20;;;10.50;99.90;;;;;;5093671;28;20726;-71
2021/04/30 02:06:39;;;;;;;5.07;2.17;;;10.40;99.90;;;;;;5093789;28;20254;-71
2021/04/30 02:09:07;;;;;;;6.10;3.10;;;10.40;99.90;;;;;;5094367;28;20213;-71
2021/04/30 02:11:34;;;;;;;3.80;2.47;;;10.50;99.90;;;;;;5093696;28;20213;-71
2021/04/30 02:14:03;;;;;;;2.87;2.17;;;10.40;99.90;;;;;;5093344;28;20226;-71
2021/04/30 02:16:29;;;;;;;2.10;1.90;;;10.40;99.90;;;;;;5093884;28;20209;-71
2021/04/30 02:18:56;;;;;;;4.20;2.33;;;10.30;99.90;;;;;;5093177;28;20202;-72
2021/04/30 02:21:22;;;;;;;2.90;2.60;;;10.40;99.90;;;;;;5093403;28;20205;-71
2021/04/30 02:23:49;;;;;;;3.20;2.33;;;10.40;99.90;;;;;;5092879;28;20680;-71
2021/04/30 02:26:16;;;;;;;2.43;2.13;;;10.50;99.90;;;;;;5093272;28;20205;-71
2021/04/30 02:28:45;;;;;;;3.90;2.47;;;10.50;99.90;;;;;;5093143;28;20205;-71
2021/04/30 02:31:13;;;;;;;2.60;2.20;;;10.50;99.90;;;;;;5093725;28;20262;-71
2021/04/30 02:33:40;;;;;;;5.63;2.40;;;10.40;99.90;;;;;;5092725;28;20727;-71
2021/04/30 02:36:07;;;;;;;4.83;2.40;;;10.40;99.90;;;;;;5093652;28;20202;-71
2021/04/30 02:38:34;;;;;;;4.33;2.60;;;10.40;99.90;;;;;;5093408;28;20213;-72
2021/04/30 02:41:00;;;;;;;4.53;2.03;;;10.30;99.90;;;;;;5092825;28;20209;-72
2021/04/30 02:43:27;;;;;;;3.13;2.50;;;10.30;99.90;;;;;;5092934;28;20237;-71
2021/04/30 02:45:54;;;;;;;2.77;2.30;;;10.30;99.90;;;;;;5092221;28;20224;-72
2021/04/30 02:48:27;;;;;;;2.63;2.00;;;10.30;99.90;;;;;;5093045;28;20217;-71
2021/04/30 02:50:54;;;;;;;3.63;2.27;;;10.30;99.90;;;;;;5092426;28;20209;-72
2021/04/30 02:53:20;;;;;;;3.03;2.50;;;10.20;99.90;;;;;;5084900;28;20226;-72
2021/04/30 02:55:47;;;;;;;2.20;2.00;;;10.30;99.90;;;;;;5086427;28;20206;-72
2021/04/30 02:58:13;;;;;;;3.17;2.50;;;10.30;99.90;;;;;;5093195;28;20216;-71
2021/04/30 03:00:40;;;;;;;3.03;2.43;;;10.20;99.90;;;;;;5092729;28;20209;-71
2021/04/30 03:03:06;;;;;;;4.17;2.53;;;10.20;99.90;;;;;;5092859;28;20209;-72
2021/04/30 03:05:34;;;;;;;6.40;2.30;;;10.20;99.90;;;;;;5093233;28;20228;-72
2021/04/30 03:08:01;;;;;;;1.90;1.80;;;10.20;99.90;;;;;;5092001;28;20206;-72
2021/04/30 03:10:27;;;;;;;5.43;2.87;;;10.10;99.90;;;;;;5092924;28;20205;-72
2021/04/30 03:12:54;;;;;;;2.60;2.20;;;10.20;99.90;;;;;;5092103;28;20225;-72
2021/04/30 03:15:21;;;;;;;1.93;1.83;;;10.20;99.90;;;;;;5092709;28;20201;-72
2021/04/30 03:17:48;;;;;;;3.20;2.37;;;10.20;99.90;;;;;;5091902;28;20627;-71
2021/04/30 03:20:16;;;;;;;5.17;2.37;;;10.30;99.90;;;;;;5092095;28;20198;-71
2021/04/30 03:22:43;;;;;;;3.57;1.70;;;10.30;99.90;;;;;;5092211;28;20206;-72
2021/04/30 03:25:12;;;;;;;3.73;2.43;;;10.30;99.90;;;;;;5092578;28;20205;-72
2021/04/30 03:27:38;;;;;;;2.20;2.10;;;10.40;99.90;;;;;;5092547;28;20278;-73
2021/04/30 03:30:08;;;;;;;2.40;2.03;;;10.60;99.90;;;;;;5092569;28;20236;-73
2021/04/30 03:32:35;;;;;;;2.10;2.00;;;10.40;99.90;;;;;;5092022;28;20209;-73
2021/04/30 03:35:02;;;;;;;4.40;2.30;;;10.40;99.90;;;;;;5091838;28;20680;-73
2021/04/30 03:37:28;;;;;;;3.83;2.27;;;10.30;99.90;;;;;;5092071;28;20559;-73
2021/04/30 03:39:56;;;;;;;2.70;2.10;;;10.30;99.90;;;;;;5091631;28;20210;-73
2021/04/30 03:42:22;;;;;;;3.37;2.17;;;10.30;99.90;;;;;;5091707;28;20206;-73
2021/04/30 03:44:49;;;;;;;3.30;2.60;;;10.20;99.90;;;;;;5091515;28;20734;-73
2021/04/30 03:47:15;;;;;;;3.43;1.97;;;10.20;99.90;;;;;;5091641;28;20213;-72
2021/04/30 03:49:42;;;;;;;3.37;2.30;;;10.10;99.90;;;;;;5091021;28;20209;-74
2021/04/30 03:52:08;;;;;;;3.60;1.80;;;10.10;99.90;;;;;;5092051;28;20216;-74
2021/04/30 03:54:35;;;;;;;2.70;1.80;;;10.20;99.90;;;;;;5091919;28;20236;-73
2021/04/30 03:57:02;;;;;;;2.80;2.30;;;10.10;99.90;;;;;;5091311;28;20202;-73
2021/04/30 03:59:29;;;;;;;2.60;2.40;;;10.30;99.90;;;;;;5091571;28;20677;-74
2021/04/30 04:01:55;;;;;;;4.60;2.23;;;10.30;99.90;;;;;;5090922;28;20722;-74
2021/04/30 04:04:22;;;;;;;3.70;2.23;;;10.30;99.90;;;;;;5091282;28;20213;-73
2021/04/30 04:06:48;;;;;;;4.20;2.40;;;10.30;99.90;;;;;;5091421;28;20213;-73
2021/04/30 04:09:14;;;;;;;2.10;1.90;;;10.30;99.90;;;;;;5091370;28;20209;-72
2021/04/30 04:11:42;;;;;;;2.10;1.90;;;10.20;99.90;;;;;;5090944;28;20209;-73
2021/04/30 04:14:10;;;;;;;3.43;2.70;;;10.20;99.90;;;;;;5091186;28;20278;-73
2021/04/30 04:16:37;;;;;;;3.27;2.87;;;10.20;99.90;;;;;;5091269;28;20205;-72
2021/04/30 04:19:04;;;;;;;2.70;2.50;;;10.10;99.90;;;;;;5091502;28;20202;-73
2021/04/30 04:21:30;;;;;;;4.13;2.80;;;10.00;99.90;;;;;;5090948;28;20584;-73
2021/04/30 04:23:56;;;;;;;3.37;3.10;;;10.00;99.90;;;;;;5090727;28;20669;-72
2021/04/30 04:26:23;;;;;;;4.10;2.87;;;10.10;99.90;;;;;;5091164;28;20250;-72
2021/04/30 04:28:49;;;;;;;3.67;3.37;;;10.10;99.90;;;;;;5090538;28;20587;-72
2021/04/30 04:31:17;;;;;;;3.67;3.23;;;9.90;99.90;;;;;;5090942;28;20278;-72
2021/04/30 04:33:43;;;;;;;5.30;3.17;;;9.90;99.90;;;;;;5090536;28;20237;-72
2021/04/30 04:36:10;;;;;;;3.97;3.53;;;9.90;99.90;;;;;;5091281;28;20202;-72
2021/04/30 04:38:36;;;;;;;3.27;2.97;;;10.00;99.90;;;;;;5091242;28;20212;-72
2021/04/30 04:41:03;;;;;;;4.63;3.30;;;10.10;99.90;;;;;;5090678;28;20202;-72
2021/04/30 04:43:29;;;;;;;3.63;3.33;;;10.10;99.90;;;;;;5090667;28;20205;-72
2021/04/30 04:45:56;;;;;;;3.80;3.50;;;10.10;99.90;;;;;;5089908;28;20209;-72
2021/04/30 04:48:24;;;;;;;4.13;2.93;;;10.10;99.90;;;;;;5090851;28;20224;-72
2021/04/30 04:50:51;;;;;;;4.30;3.00;;;10.10;99.90;;;;;;5090083;28;20217;-72
2021/04/30 04:53:17;;;;;;;5.57;3.30;;;10.10;99.90;;;;;;5090737;28;20608;-72
2021/04/30 04:55:43;;;;;;;3.60;3.30;;;10.10;99.90;;;;;;5090287;28;20625;-72
2021/04/30 04:58:10;;;;;;;3.43;3.13;;;10.20;99.90;;;;;;5090344;28;20205;-72
2021/04/30 05:00:36;;;;;;;4.50;4.10;;;10.20;99.90;;;;;;5091191;28;20213;-72
2021/04/30 05:03:03;;;;;;;5.07;3.67;;;10.20;99.90;;;;;;5090543;28;20209;-73
2021/04/30 05:05:30;;;;;;;3.30;3.00;;;10.20;99.90;;;;;;5090774;28;20209;-71
2021/04/30 05:07:57;;;;;;;5.63;3.10;;;10.10;99.90;;;;;;5089264;28;20216;-71
2021/04/30 05:10:24;;;;;;;3.73;3.30;;;10.20;99.90;;;;;;5090818;28;20201;-73
2021/04/30 05:12:50;;;;;;;4.57;4.17;;;10.10;99.90;;;;;;5089797;28;20209;-73
2021/04/30 05:15:17;;;;;;;4.47;4.07;;;10.10;99.90;;;;;;5090657;28;20209;-72
2021/04/30 05:17:43;;;;;;;3.87;3.47;;;10.10;99.90;;;;;;5090375;28;20202;-73
2021/04/30 05:20:11;;;;;;;4.83;3.50;;;10.10;99.90;;;;;;5089980;28;20685;-73
2021/04/30 05:22:41;;;;;;;4.63;4.23;;;10.10;99.90;;;;;;5090866;28;20205;-73
2021/04/30 05:25:10;;;;;;;5.20;4.30;;;10.10;99.90;;;;;;5090975;28;20212;-73
2021/04/30 05:27:36;;;;;;;6.50;4.40;;;10.20;99.90;;;;;;5090573;28;20209;-73
2021/04/30 05:30:06;;;;;;;6.50;4.37;;;10.10;99.90;;;;;;5090063;28;20234;-73
2021/04/30 05:32:32;;;;;;;7.43;5.30;;;10.10;99.90;;;;;;5071641;28;20288;-73
2021/04/30 05:35:00;;;;;;;7.50;4.60;;;10.20;99.90;;;;;;5080825;28;20636;-73
2021/04/30 05:37:27;;;;;;;5.97;4.43;;;10.10;99.90;;;;;;5083408;28;20201;-73
2021/04/30 05:39:54;;;;;;;5.93;4.77;;;10.10;99.90;;;;;;5089904;28;20205;-73
2021/04/30 05:42:21;;;;;;;5.53;4.33;;;10.20;99.90;;;;;;5075389;28;20210;-73
2021/04/30 05:44:47;;;;;;;4.70;4.30;;;10.30;99.90;;;;;;5077855;28;20735;-72
2021/04/30 05:47:14;;;;;;;5.40;4.90;;;10.50;99.90;;;;;;5089245;28;20205;-72
2021/04/30 05:49:40;;;;;;;5.53;5.10;;;10.60;99.90;;;;;;5088184;28;20214;-73
2021/04/30 05:52:06;;;;;;;5.13;4.63;;;10.60;99.90;;;;;;5079996;28;20202;-72
2021/04/30 05:54:33;;;;;;;10.40;5.00;;;10.60;99.90;;;;;;5078247;28;20222;-72
2021/04/30 05:57:00;;;;;;;7.37;4.90;;;10.60;99.90;;;;;;5073828;28;20206;-71
2021/04/30 05:59:27;;;;;;;5.60;5.13;;;10.60;99.90;;;;;;5086322;28;20208;-72
2021/04/30 06:01:53;;;;;;;12.50;5.47;;;10.80;99.90;;;;;;5089628;28;20206;-71
2021/04/30 06:04:20;;;;;;;8.13;5.00;;;10.70;99.90;;;;;;5089933;28;20224;-73
2021/04/30 06:06:50;;;;;;;5.53;4.93;;;10.60;99.90;;;;;;5089751;28;20202;-73
2021/04/30 06:09:17;;;;;;;6.73;5.70;;;10.60;99.90;;;;;;5090371;28;20209;-73
2021/04/30 06:11:43;;;;;;;5.27;4.77;;;10.70;99.90;;;;;;5089465;28;20198;-71
2021/04/30 06:14:11;;;;;;;9.23;6.60;;;10.60;99.90;;;;;;5090151;28;20233;-71
2021/04/30 06:16:38;;;;;;;6.47;5.80;;;10.60;99.90;;;;;;5089782;28;20217;-71
2021/04/30 06:19:05;;;;;;;6.30;4.70;;;10.70;99.90;;;;;;5092078;28;20201;-71
2021/04/30 06:21:32;;;;;;;8.77;5.20;;;10.70;99.90;;;;;;5093578;28;20209;-71
2021/04/30 06:24:01;;;;;;;5.40;4.60;;;10.90;99.90;;;;;;5092801;28;20206;-71
2021/04/30 06:26:27;;;;;;;6.27;5.63;;;11.00;99.90;;;;;;5093257;28;20716;-71
2021/04/30 06:28:54;;;;;;;5.53;4.87;;;11.10;99.90;;;;;;5092808;28;20700;-72
2021/04/30 06:31:21;;;;;;;5.50;5.00;;;11.20;99.90;;;;;;5093681;28;20255;-71
2021/04/30 06:33:47;;;;;;;4.60;3.77;;;11.40;99.90;;;;;;5092907;28;20225;-71
2021/04/30 06:36:14;;;;;;;6.63;4.47;;;11.30;99.90;;;;;;5093486;28;20201;-71
2021/04/30 06:38:40;;;;;;;8.97;5.23;;;11.40;99.90;;;;;;5092904;28;20224;-71
2021/04/30 06:41:07;;;;;;;4.50;4.03;;;11.30;99.90;;;;;;5093247;28;20206;-71
2021/04/30 06:43:33;;;;;;;6.57;4.37;;;11.20;99.90;;;;;;5093731;28;20212;-71
2021/04/30 06:46:00;;;;;;;4.37;3.90;;;11.10;99.90;;;;;;5092696;28;20225;-71
2021/04/30 06:48:27;;;;;;;4.53;4.13;;;11.00;99.90;;;;;;5093061;28;20209;-72
2021/04/30 06:50:53;;;;;;;5.90;4.30;;;11.10;99.90;;;;;;5092592;28;20206;-71
2021/04/30 06:53:20;;;;;;;3.70;3.40;;;11.20;99.90;;;;;;5092879;28;20232;-71
2021/04/30 06:55:46;;;;;;;3.80;3.50;;;11.20;99.90;;;;;;5092695;28;20206;-72
2021/04/30 06:58:13;;;;;;;3.50;3.20;;;11.20;99.90;;;;;;5064654;28;20735;-70
2021/04/30 07:00:39;;;;;;;4.33;3.73;;;11.20;99.90;;;;;;5092581;28;20569;-72
2021/04/30 07:03:06;;;;;;;9.43;4.87;;;11.20;99.90;;;;;;5092788;28;20201;-71
2021/04/30 07:05:34;;;;;;;4.37;3.90;;;11.20;99.90;;;;;;5081175;28;20298;-71
2021/04/30 07:08:02;;;;;;;4.50;4.10;;;11.40;99.90;;;;;;5062421;28;20207;-72
2021/04/30 07:10:28;;;;;;;4.80;4.07;;;11.40;99.90;;;;;;5069679;28;20774;-72
2021/04/30 07:12:55;;;;;;;4.63;4.30;;;11.50;99.90;;;;;;5070573;28;20259;-72
2021/04/30 07:15:21;;;;;;;3.97;3.63;;;11.40;99.90;;;;;;5073044;28;20210;-72
2021/04/30 07:17:48;;;;;;;4.40;4.00;;;11.50;99.90;;;;;;5072556;28;20206;-72
2021/04/30 07:20:15;;;;;;;5.63;5.13;;;11.70;99.90;;;;;;5072613;28;20674;-73
2021/04/30 07:22:42;;;;;;;4.90;4.43;;;11.80;99.90;;;;;;5092138;28;20209;-72
2021/04/30 07:25:09;;;;;;;3.63;3.33;;;11.90;99.90;;;;;;5075731;28;20262;-73
2021/04/30 07:27:36;;;;;;;4.53;3.77;;;12.00;99.90;;;;;;5064173;28;20206;-72
2021/04/30 07:30:03;;;;;;;4.00;3.37;;;12.20;99.90;;;;;;5076496;28;20229;-72
2021/04/30 07:32:30;;;;;;;5.60;4.67;;;12.10;99.90;;;;;;5090143;28;20202;-73
2021/04/30 07:34:56;;;;;;;5.10;4.60;;;11.80;99.90;;;;;;5091986;28;20298;-72
2021/04/30 07:37:23;;;;;;;6.47;4.13;;;11.70;99.90;;;;;;5091627;28;20202;-72
2021/04/30 07:39:50;;;;;;;4.93;4.53;;;11.60;99.90;;;;;;5091921;28;20205;-73
2021/04/30 07:42:17;;;;;;;7.97;5.10;;;11.50;99.90;;;;;;5084668;28;20217;-73
2021/04/30 07:44:43;;;;;;;4.80;4.33;;;11.50;99.90;;;;;;5091628;28;20568;-72
2021/04/30 07:47:10;;;;;;;5.53;5.03;;;11.60;99.90;;;;;;5078611;28;20206;-74
2021/04/30 07:49:37;;;;;;;4.47;4.07;;;11.90;99.90;;;;;;5078274;28;20213;-74
2021/04/30 07:52:05;;;;;;;7.13;4.40;;;12.20;99.90;;;;;;5091827;28;20284;-74
2021/04/30 07:54:31;;;;;;;6.40;4.13;;;12.30;99.90;;;;;;5091406;28;20225;-72
2021/04/30 07:56:59;;;;;;;5.83;5.27;;;12.50;99.90;;;;;;5091436;28;20236;-71
2021/04/30 07:59:26;;;;;;;4.70;4.07;;;12.70;99.90;;;;;;5081370;28;20206;-71
2021/04/30 08:01:52;;;;;;;4.50;3.77;;;12.80;99.90;;;;;;5081304;28;20547;-71
2021/04/30 08:04:18;;;;;;;5.15;4.25;;;12.50;99.90;;;;;;5066531;28;20210;-75
2021/04/30 08:06:45;;;;;;;4.40;4.03;;;12.20;99.90;;;;;;5071335;28;20215;-71
2021/04/30 08:09:12;;;;;;;4.67;3.57;;;12.00;99.90;;;;;;5063234;28;20260;-74
2021/04/30 08:11:38;;;;;;;4.13;3.73;;;12.00;99.90;;;;;;5074627;28;20284;-73
2021/04/30 08:14:07;;;;;;;5.13;3.90;;;12.20;99.90;;;;;;5089693;28;20229;-71
2021/04/30 08:16:33;;;;;;;4.03;3.73;;;12.50;99.90;;;;;;5086057;28;20205;-71
2021/04/30 08:19:00;;;;;;;4.33;3.67;;;12.60;99.90;;;;;;5082340;28;20217;-72
2021/04/30 08:21:27;;;;;;;5.10;4.23;;;12.70;99.90;;;;;;5074402;28;20205;-71
2021/04/30 08:23:53;;;;;;;4.23;3.83;;;12.90;99.90;;;;;;5070673;28;20584;-71
2021/04/30 08:26:20;;;;;;;4.50;3.53;;;13.20;99.90;;;;;;5078526;28;20201;-71
2021/04/30 08:28:47;;;;;;;5.20;3.40;;;13.30;99.90;;;;;;5081651;28;20205;-71
2021/04/30 08:31:15;;;;;;;4.68;3.83;;;13.30;99.90;;;;;;5079915;28;20255;-71
2021/04/30 08:33:41;;;;;;;4.18;3.78;;;13.10;99.90;;;;;;5078524;28;20226;-71
2021/04/30 08:36:08;;;;;;;8.57;4.72;;;13.10;99.90;;;;;;5090733;28;20243;-71
2021/04/30 08:38:36;;;;;;;3.47;3.20;;;13.20;99.90;;;;;;5090178;28;20205;-71
2021/04/30 08:41:03;;;;;;;3.37;3.07;;;13.20;99.90;;;;;;5083407;28;20664;-71
2021/04/30 08:43:30;;;;;;;3.90;3.28;;;13.10;99.90;;;;;;5083429;28;20682;-70
2021/04/30 08:45:56;;;;;;;5.32;3.30;;;13.10;99.90;;;;;;5074607;28;20209;-71
2021/04/30 08:48:25;;;;;;;3.40;3.13;;;13.10;99.90;;;;;;5078846;28;20211;-70
2021/04/30 08:50:54;;;;;;;4.25;3.85;;;13.10;99.90;;;;;;5077134;28;20217;-72
2021/04/30 08:53:20;;;;;;;5.20;4.10;;;12.90;99.90;;;;;;5073799;28;20213;-71
2021/04/30 08:55:49;;;;;;;5.05;3.22;;;13.00;99.90;;;;;;5074836;28;20206;-71
2021/04/30 08:58:21;;;;;;;6.10;3.15;;;13.20;99.90;;;;;;5071005;28;20326;-72
2021/04/30 09:00:48;;;;;;;4.30;3.40;;;13.40;99.90;;;;;;5075812;28;20210;-72
2021/04/30 09:03:16;;;;;;;4.95;3.05;;;13.60;99.90;;;;;;5080984;28;20684;-71
2021/04/30 09:05:48;;;;;;;4.53;2.40;;;13.70;99.90;;;;;;5075544;28;20746;-70
2021/04/30 09:08:14;;;;;;;9.48;2.58;;;13.90;99.90;;;;;;5080705;28;20553;-70
2021/04/30 09:10:44;;;;;;;16.52;4.35;;;14.20;99.90;;;;;;5076501;28;20213;-71
2021/04/30 09:13:12;;;;;;;4.00;2.72;;;14.30;99.90;;;;;;5079088;28;20250;-72
2021/04/30 09:15:41;;;;;;;4.55;3.50;;;14.40;99.90;;;;;;5078150;28;20256;-73
2021/04/30 09:18:18;;;;;;;7.35;2.50;;;14.60;99.90;;;;;;5078025;28;20581;-70
2021/04/30 09:20:47;;;;;;;2.88;2.08;;;15.90;99.90;;;;;;5076639;28;20205;-70
2021/04/30 09:23:36;;;;;;;3.00;2.75;;;16.40;99.90;;;;;;5071846;28;20205;-70
2021/04/30 09:26:20;;;;;;;3.13;2.83;;;15.80;99.90;;;;;;5062943;28;20202;-70
2021/04/30 09:28:58;;;;;;;2.72;2.42;;;15.50;99.90;;;;;;5090006;28;20247;-71
2021/04/30 09:31:35;;;;;;;3.35;2.20;;;15.10;99.90;;;;;;5090442;28;20209;-70
2021/04/30 09:34:15;;;;;;;3.08;2.65;;;14.70;99.90;;;;;;5089494;28;20225;-71
2021/04/30 09:37:10;;;;;;;3.60;2.50;;;14.60;99.90;;;;;;5090199;28;20205;-70
2021/04/30 09:39:53;;;;;;;2.28;1.95;;;15.00;99.90;;;;;;5077320;28;20201;-71
2021/04/30 09:42:21;;;;;;;4.50;2.60;;;15.10;99.90;;;;;;5090185;28;20222;-71
2021/04/30 09:44:49;;;;;;;3.28;1.92;;;16.50;99.90;;;;;;5089939;28;20677;-71
2021/04/30 09:47:24;;;;;;;3.00;2.08;;;17.30;99.90;;;;;;5090450;28;20216;-73
2021/04/30 09:49:53;;;;;;;2.42;2.22;;;17.40;99.90;;;;;;5085787;28;20208;-71
2021/04/30 09:52:22;;;;;;;2.90;1.58;;;17.30;99.90;;;;;;5066366;28;20206;-69
2021/04/30 09:54:50;;;;;;;3.45;2.30;;;16.60;99.90;;;;;;5060695;28;20243;-70
2021/04/30 09:57:19;;;;;;;1.88;1.77;;;16.10;99.90;;;;;;5073087;28;20209;-71
2021/04/30 09:59:54;;;;;;;1.85;1.75;;;15.60;99.90;;;;;;5083605;28;20201;-70
2021/04/30 10:02:22;;;;;;;2.92;1.65;;;14.90;99.90;;;;;;5078962;28;20202;-71
2021/04/30 10:04:50;;;;;;;2.28;1.50;;;14.60;99.90;;;;;;5071699;28;20266;-70
2021/04/30 10:07:28;;;;;;;2.08;1.88;;;14.50;99.90;;;;;;5072944;28;20682;-70
2021/04/30 10:10:03;;;;;;;1.90;1.80;;;14.50;99.90;;;;;;5079194;28;20201;-71
2021/04/30 10:12:30;;;;;;;2.78;1.98;;;14.70;99.90;;;;;;5075687;28;20214;-71
2021/04/30 10:14:57;;;;;;;2.05;1.70;;;14.80;99.90;;;;;;5078541;28;20287;-71
2021/04/30 10:17:23;;;;;;;2.28;1.80;;;15.10;99.90;;;;;;5065755;28;20209;-70
2021/04/30 10:19:51;;;;;;;3.25;2.10;;;15.40;99.90;;;;;;5085008;28;20213;-70
2021/04/30 10:22:20;;;;;;;3.05;2.53;;;15.70;99.90;;;;;;5081648;28;20564;-70
2021/04/30 10:24:50;;;;;;;2.67;1.48;;;15.80;99.90;;;;;;5093413;28;20220;-71
2021/04/30 10:27:19;;;;;;;3.88;1.70;;;15.90;99.90;;;;;;5093495;28;20197;-72
2021/04/30 10:30:04;;;;;;;3.15;2.25;;;16.40;99.90;;;;;;5093049;28;20259;-71
2021/04/30 10:32:37;;;;;;;3.47;1.70;;;16.50;99.90;;;;;;5092936;28;20209;-70
2021/04/30 10:35:07;;;;;;;4.10;2.35;;;16.50;99.90;;;;;;5086840;28;20240;-71
2021/04/30 10:37:35;;;;;;;3.28;1.60;;;16.30;99.90;;;;;;5066965;28;20263;-70
2021/04/30 10:40:04;;;;;;;2.40;1.70;;;16.20;99.90;;;;;;5087098;28;20691;-71
2021/04/30 10:42:40;;;;;;;2.25;1.77;;;16.50;99.90;;;;;;5066317;28;20209;-71
2021/04/30 10:45:10;;;;;;;2.05;1.75;;;16.60;99.90;;;;;;5092693;28;20216;-71
2021/04/30 10:47:36;;;;;;;3.20;1.90;;;16.70;99.90;;;;;;5084254;28;20671;-71
2021/04/30 10:50:12;;;;;;;1.80;1.70;;;17.10;99.90;;;;;;5063716;28;20642;-71
2021/04/30 10:52:39;;;;;;;3.08;1.88;;;17.10;99.90;;;;;;5073763;28;20209;-70
2021/04/30 10:55:08;;;;;;;4.40;2.13;;;17.30;99.90;;;;;;5073753;28;20232;-70
2021/04/30 10:57:48;;;;;;;4.43;1.33;;;17.70;99.90;;;;;;5073876;28;20214;-71
2021/04/30 11:00:16;;;;;;;4.18;1.55;;;17.70;99.90;;;;;;5073422;28;20284;-71
2021/04/30 11:02:42;;;;;;;3.30;1.80;;;17.30;99.90;;;;;;5073341;28;20206;-71
2021/04/30 11:05:11;;;;;;;3.10;1.67;;;17.60;99.90;;;;;;5070235;28;20206;-71
2021/04/30 11:07:40;;;;;;;4.35;1.77;;;17.50;99.90;;;;;;5065166;28;20206;-71
2021/04/30 11:10:35;;;;;;;2.63;1.77;;;17.60;99.90;;;;;;5085076;28;20202;-71
2021/04/30 11:13:14;;;;;;;2.78;2.10;;;17.30;99.90;;;;;;5079981;28;20206;-71
2021/04/30 11:16:02;;;;;;;2.55;1.90;;;16.70;99.90;;;;;;5069583;28;20225;-71
2021/04/30 11:18:30;;;;;;;3.70;1.83;;;16.60;99.90;;;;;;5083221;28;20251;-71
2021/04/30 11:21:03;;;;;;;5.95;1.90;;;16.80;99.90;;;;;;5080594;28;20360;-72
2021/04/30 11:23:37;;;;;;;1.90;1.80;;;17.30;99.90;;;;;;5092209;28;20213;-71
2021/04/30 11:26:12;;;;;;;2.22;1.85;;;17.40;99.90;;;;;;5092603;28;20202;-71
2021/04/30 11:29:06;;;;;;;3.28;2.00;;;17.40;99.90;;;;;;5092274;28;20251;-71
2021/04/30 11:31:34;;;;;;;2.45;1.75;;;17.50;99.90;;;;;;5082576;28;20212;-70
2021/04/30 11:34:24;;;;;;;2.15;1.92;;;17.00;99.90;;;;;;5079387;28;20232;-71
2021/04/30 11:36:56;;;;;;;1.90;1.50;;;16.70;99.90;;;;;;5087934;28;20207;-70
2021/04/30 11:39:25;;;;;;;2.40;1.40;;;16.70;99.90;;;;;;5072144;28;20243;-69
2021/04/30 11:41:58;;;;;;;1.92;1.63;;;17.00;99.90;;;;;;5072534;28;20233;-68
2021/04/30 11:44:24;;;;;;;1.58;1.48;;;16.60;99.90;;;;;;5077306;28;20198;-69
2021/04/30 11:47:01;;;;;;;2.20;1.77;;;16.60;99.90;;;;;;5073721;28;20205;-70
2021/04/30 11:49:28;;;;;;;2.65;1.58;;;16.40;99.90;;;;;;5080944;28;20296;-70
2021/04/30 11:51:54;;;;;;;1.95;1.67;;;16.00;99.90;;;;;;5077177;28;20205;-69
2021/04/30 11:54:27;;;;;;;3.40;1.33;;;15.80;99.90;;;;;;5072193;28;20616;-72
2021/04/30 11:56:59;;;;;;;2.28;2.08;;;15.60;99.90;;;;;;5072955;28;20633;-75
2021/04/30 11:59:26;;;;;;;2.75;2.28;;;15.50;99.90;;;;;;5068941;28;20260;-75
2021/04/30 12:01:58;;;;;;;1.92;1.20;;;15.80;99.90;;;;;;5071571;28;20202;-68
2021/04/30 12:04:53;;;;;;;3.17;2.15;;;16.20;99.90;;;;;;5066748;28;20637;-68
2021/04/30 12:07:22;;;;;;;3.53;1.67;;;16.60;99.90;;;;;;5070145;28;20217;-68
2021/04/30 12:09:49;;;;;;;1.67;1.58;;;16.70;99.90;;;;;;5065538;28;20210;-68
2021/04/30 12:12:23;;;;;;;1.60;1.50;;;16.80;99.90;;;;;;5075063;28;20213;-73
2021/04/30 12:14:58;;;;;;;2.42;1.30;;;17.00;99.90;;;;;;5062732;28;20227;-72
2021/04/30 12:17:33;;;;;;;1.85;1.25;;;17.00;99.90;;;;;;5064490;28;20205;-70
2021/04/30 12:20:09;;;;;;;1.00;0.93;;;16.60;99.90;;;;;;5069745;28;20584;-72
2021/04/30 12:22:44;;;;;;;1.20;1.10;;;16.30;99.90;;;;;;5063537;28;20205;-73
2021/04/30 12:25:28;;;;;;;1.45;1.08;;;16.30;99.90;;;;;;5072334;28;20202;-73
2021/04/30 12:28:11;;;;;;;1.63;0.95;;;16.30;99.90;;;;;;5069483;28;20210;-72
2021/04/30 12:30:38;;;;;;;2.17;1.10;;;16.40;99.90;;;;;;5076229;28;20237;-72
2021/04/30 12:33:04;;;;;;;1.02;0.98;;;16.40;99.90;;;;;;5071546;28;20201;-73
2021/04/30 12:35:31;;;;;;;1.27;1.17;;;16.20;99.90;;;;;;5081850;28;20226;-73
2021/04/30 12:37:58;;;;;;;3.72;1.23;;;16.00;99.90;;;;;;5086089;28;20212;-73
2021/04/30 12:40:28;;;;;;;3.28;1.30;;;16.00;99.90;;;;;;5079090;28;20579;-72
2021/04/30 12:42:56;;;;;;;1.48;1.27;;;16.00;99.90;;;;;;5070521;28;20205;-73
2021/04/30 12:45:24;;;;;;;1.77;1.35;;;16.00;99.90;;;;;;5065022;28;20209;-72
2021/04/30 12:47:53;;;;;;;1.67;1.50;;;16.00;99.90;;;;;;5076090;28;20202;-70
2021/04/30 12:50:21;;;;;;;1.70;1.50;;;15.80;99.90;;;;;;5076329;28;20678;-69
2021/04/30 12:52:50;;;;;;;2.90;1.33;;;15.70;99.90;;;;;;5069265;28;20236;-73
2021/04/30 12:55:25;;;;;;;3.90;1.65;;;15.60;99.90;;;;;;5063154;28;20229;-73